createdAt,value
2023-05-11T00:01:08.621Z,14.11
2023-05-11T00:03:35.472Z,14.10
2023-05-11T00:06:02.424Z,14.07
2023-05-11T00:08:28.959Z,14.00
2023-05-11T00:10:55.051Z,13.98
2023-05-11T00:13:21.416Z,13.91
2023-05-11T00:15:47.570Z,13.86
2023-05-11T00:18:14.016Z,13.80
2023-05-11T00:20:40.050Z,13.79
2023-05-11T00:23:06.416Z,13.77
2023-05-11T00:25:32.577Z,13.80
2023-05-11T00:27:58.986Z,13.71
2023-05-11T00:30:25.096Z,13.64
2023-05-11T00:32:51.559Z,13.65
2023-05-11T00:35:17.798Z,13.62
2023-05-11T00:37:44.313Z,13.57
2023-05-11T00:40:10.635Z,13.51
2023-05-11T00:42:37.080Z,13.50
2023-05-11T00:45:03.657Z,13.45
2023-05-11T00:47:30.261Z,13.41
2023-05-11T00:49:56.896Z,13.41
2023-05-11T00:52:24.191Z,13.37
2023-05-11T00:54:50.810Z,13.31
2023-05-11T00:57:17.325Z,13.21
2023-05-11T00:59:43.391Z,13.16
2023-05-11T01:02:10.211Z,13.18
2023-05-11T01:04:36.930Z,13.08
2023-05-11T01:07:12.740Z,12.96
2023-05-11T01:10:10.435Z,12.93
2023-05-11T01:13:07.435Z,12.96
2023-05-11T01:15:55.916Z,12.87
2023-05-11T01:18:34.224Z,12.87
2023-05-11T01:21:08.729Z,12.76
2023-05-11T01:23:38.621Z,12.80
2023-05-11T01:26:13.841Z,12.75
2023-05-11T01:28:52.108Z,12.75
2023-05-11T01:31:19.646Z,12.78
2023-05-11T01:33:53.317Z,12.75
2023-05-11T01:36:24.567Z,12.68
2023-05-11T01:38:53.215Z,12.69
2023-05-11T01:41:23.849Z,12.69
2023-05-11T01:43:55.091Z,12.71
2023-05-11T01:46:24.295Z,12.69
2023-05-11T01:48:53.976Z,12.71
2023-05-11T01:51:20.178Z,12.71
2023-05-11T01:53:47.721Z,12.68
2023-05-11T01:56:15.032Z,12.71
2023-05-11T01:58:43.010Z,12.77
2023-05-11T02:01:10.703Z,12.85
2023-05-11T02:03:38.827Z,12.88
2023-05-11T02:06:07.279Z,12.86
2023-05-11T02:08:37.495Z,12.80
2023-05-11T02:11:05.833Z,12.86
2023-05-11T02:13:35.693Z,12.86
2023-05-11T02:16:03.131Z,12.87
2023-05-11T02:18:31.161Z,12.89
2023-05-11T02:20:59.503Z,12.89
2023-05-11T02:23:27.112Z,12.87
2023-05-11T02:25:55.169Z,12.84
2023-05-11T02:28:21.670Z,12.82
2023-05-11T02:30:51.567Z,12.76
2023-05-11T02:33:23.930Z,12.77
2023-05-11T02:35:52.458Z,12.86
2023-05-11T02:38:20.238Z,12.80
2023-05-11T02:40:50.802Z,12.84
2023-05-11T02:43:23.877Z,12.78
2023-05-11T02:46:00.009Z,12.81
2023-05-11T02:48:29.804Z,12.74
2023-05-11T02:51:00.483Z,12.73
2023-05-11T02:53:34.272Z,12.76
2023-05-11T02:56:01.078Z,12.77
2023-05-11T02:58:30.009Z,12.77
2023-05-11T03:01:08.032Z,12.75
2023-05-11T03:03:34.842Z,12.76
2023-05-11T03:06:01.157Z,12.71
2023-05-11T03:08:28.317Z,12.70
2023-05-11T03:10:55.957Z,12.66
2023-05-11T03:13:24.408Z,12.70
2023-05-11T03:15:53.973Z,12.70
2023-05-11T03:18:22.060Z,12.68
2023-05-11T03:20:49.704Z,12.66
2023-05-11T03:23:17.919Z,12.70
2023-05-11T03:25:44.967Z,12.69
2023-05-11T03:28:14.017Z,12.73
2023-05-11T03:30:47.295Z,12.71
2023-05-11T03:33:13.767Z,12.65
2023-05-11T03:35:42.450Z,12.58
2023-05-11T03:38:11.477Z,12.64
2023-05-11T03:40:41.089Z,12.68
2023-05-11T03:43:10.234Z,12.70
2023-05-11T03:45:37.540Z,12.66
2023-05-11T03:48:07.610Z,12.67
2023-05-11T03:50:34.277Z,12.77
2023-05-11T03:53:00.777Z,12.72
2023-05-11T03:55:27.283Z,12.79
2023-05-11T03:57:54.076Z,12.76
2023-05-11T04:00:21.408Z,12.84
2023-05-11T04:02:48.225Z,12.77
2023-05-11T04:05:14.476Z,12.74
2023-05-11T04:07:44.266Z,12.63
2023-05-11T04:10:10.651Z,12.65
2023-05-11T04:12:36.986Z,12.63
2023-05-11T04:15:03.810Z,12.60
2023-05-11T04:17:30.197Z,12.70
2023-05-11T04:19:56.312Z,12.67
2023-05-11T04:22:22.911Z,12.72
2023-05-11T04:24:48.984Z,12.91
2023-05-11T04:27:15.786Z,13.08
2023-05-11T04:29:41.926Z,13.25
2023-05-11T04:32:08.301Z,13.33
2023-05-11T04:34:34.470Z,13.59
2023-05-11T04:37:06.482Z,13.65
2023-05-11T04:39:34.245Z,14.05
2023-05-11T04:42:01.244Z,14.25
2023-05-11T04:44:28.358Z,14.43
2023-05-11T04:46:56.007Z,14.51
2023-05-11T04:49:22.414Z,14.48
2023-05-11T04:51:48.866Z,14.34
2023-05-11T04:54:16.045Z,14.35
2023-05-11T04:56:42.665Z,14.14
2023-05-11T04:59:09.531Z,14.06
2023-05-11T05:01:36.169Z,13.90
2023-05-11T05:04:02.677Z,13.74
2023-05-11T05:06:29.065Z,13.87
2023-05-11T05:08:56.356Z,13.86
2023-05-11T05:11:23.501Z,14.08
2023-05-11T05:13:50.144Z,14.28
2023-05-11T05:16:17.079Z,14.31
2023-05-11T05:18:43.337Z,14.54
2023-05-11T05:21:09.991Z,14.67
2023-05-11T05:23:36.089Z,14.92
2023-05-11T05:26:02.571Z,14.97
2023-05-11T05:28:30.306Z,15.11
2023-05-11T05:30:57.471Z,15.19
2023-05-11T05:33:26.280Z,15.30
2023-05-11T05:35:53.250Z,15.45
2023-05-11T05:38:19.657Z,15.49
2023-05-11T05:40:46.482Z,15.54
2023-05-11T05:43:12.658Z,16.68
2023-05-11T05:45:39.339Z,20.40
2023-05-11T05:48:06.039Z,23.61
2023-05-11T05:50:33.334Z,24.70
2023-05-11T05:52:59.459Z,25.20
2023-05-11T05:55:27.885Z,25.40
2023-05-11T05:57:55.599Z,25.54
2023-05-11T06:00:22.361Z,25.45
2023-05-11T06:02:57.273Z,24.62
2023-05-11T06:05:26.417Z,25.36
2023-05-11T06:08:05.970Z,25.40
2023-05-11T06:10:37.684Z,26.22
2023-05-11T06:13:04.090Z,26.26
2023-05-11T06:15:30.690Z,26.81
2023-05-11T06:18:03.239Z,26.64
2023-05-11T06:20:31.336Z,26.83
2023-05-11T06:22:57.595Z,26.95
2023-05-11T06:25:24.131Z,26.81
2023-05-11T06:27:50.569Z,26.23
2023-05-11T06:30:17.871Z,26.70
2023-05-11T06:32:47.157Z,26.10
2023-05-11T06:35:16.410Z,26.59
2023-05-11T06:37:42.628Z,26.08
2023-05-11T06:40:09.640Z,26.30
2023-05-11T06:42:54.265Z,26.78
2023-05-11T06:45:20.983Z,27.10
2023-05-11T06:47:50.463Z,26.78
2023-05-11T06:50:18.386Z,26.83
2023-05-11T06:52:45.637Z,27.17
2023-05-11T06:55:13.585Z,27.54
2023-05-11T06:57:40.246Z,27.44
2023-05-11T07:00:07.526Z,27.52
2023-05-11T07:02:33.671Z,27.75
2023-05-11T07:05:00.360Z,26.78
2023-05-11T07:07:27.001Z,27.23
2023-05-11T07:09:53.421Z,26.25
2023-05-11T07:12:19.473Z,25.75
2023-05-11T07:14:45.818Z,25.72
2023-05-11T07:17:12.497Z,25.79
2023-05-11T07:19:39.258Z,26.12
2023-05-11T07:22:05.346Z,24.72
2023-05-11T07:24:31.741Z,23.71
2023-05-11T07:26:57.866Z,22.56
2023-05-11T07:29:24.246Z,22.02
2023-05-11T07:31:50.870Z,23.00
2023-05-11T07:34:17.392Z,23.03
2023-05-11T07:36:44.201Z,21.65
2023-05-11T07:39:10.632Z,21.52
2023-05-11T07:41:36.733Z,22.62
2023-05-11T07:44:03.186Z,23.93
2023-05-11T07:46:29.800Z,24.97
2023-05-11T07:49:11.277Z,25.15
2023-05-11T07:51:42.101Z,24.12
2023-05-11T07:54:08.894Z,24.96
2023-05-11T07:56:35.648Z,24.96
2023-05-11T07:59:02.361Z,25.48
2023-05-11T08:01:28.609Z,25.51
2023-05-11T08:03:55.454Z,25.04
2023-05-11T08:06:21.892Z,24.43
2023-05-11T08:08:48.497Z,24.37
2023-05-11T08:11:14.862Z,24.24
2023-05-11T08:13:41.655Z,24.21
2023-05-11T08:16:08.189Z,24.81
2023-05-11T08:18:34.748Z,25.21
2023-05-11T08:21:00.963Z,24.82
2023-05-11T08:23:27.297Z,25.05
2023-05-11T08:25:55.293Z,24.14
2023-05-11T08:28:22.445Z,24.48
2023-05-11T08:30:58.888Z,23.95
2023-05-11T08:33:37.597Z,23.83
2023-05-11T08:36:06.171Z,24.02
2023-05-11T08:38:34.797Z,24.39
2023-05-11T08:41:01.536Z,24.26
2023-05-11T08:43:28.608Z,23.75
2023-05-11T08:46:00.467Z,23.66
2023-05-11T08:48:28.362Z,24.28
2023-05-11T08:50:54.441Z,23.99
2023-05-11T08:53:21.943Z,24.18
2023-05-11T08:55:50.709Z,24.12
2023-05-11T08:58:21.707Z,24.05
2023-05-11T09:00:51.319Z,24.54
2023-05-11T09:03:21.721Z,24.77
2023-05-11T09:05:49.171Z,24.61
2023-05-11T09:08:18.707Z,24.80
2023-05-11T09:10:45.220Z,24.50
2023-05-11T09:13:11.937Z,24.27
2023-05-11T09:15:38.577Z,23.50
2023-05-11T09:18:05.018Z,23.29
2023-05-11T09:20:33.022Z,23.33
2023-05-11T09:23:00.284Z,23.82
2023-05-11T09:25:31.551Z,24.30
2023-05-11T09:27:58.913Z,23.30
2023-05-11T09:30:25.830Z,24.13
2023-05-11T09:32:57.435Z,24.78
2023-05-11T09:35:29.098Z,24.99
2023-05-11T09:38:11.764Z,25.09
2023-05-11T09:40:43.965Z,24.98
2023-05-11T09:43:28.121Z,25.32
2023-05-11T09:45:57.403Z,25.42
2023-05-11T09:48:26.355Z,25.15
2023-05-11T09:50:59.798Z,25.40
2023-05-11T09:53:43.947Z,24.87
2023-05-11T09:56:12.234Z,24.59
2023-05-11T09:58:49.503Z,24.25
2023-05-11T10:01:18.469Z,24.23
2023-05-11T10:03:56.275Z,23.89
2023-05-11T10:06:28.014Z,23.91
2023-05-11T10:08:54.475Z,24.02
2023-05-11T10:11:24.103Z,23.68
2023-05-11T10:13:52.291Z,23.97
2023-05-11T10:16:19.689Z,24.02
2023-05-11T10:18:46.150Z,24.29
2023-05-11T10:21:14.720Z,24.28
2023-05-11T10:23:42.216Z,24.14
2023-05-11T10:26:09.839Z,24.20
2023-05-11T10:28:36.501Z,24.38
2023-05-11T10:31:04.052Z,24.20
2023-05-11T10:33:30.689Z,23.58
2023-05-11T10:35:57.289Z,23.68
2023-05-11T10:38:24.722Z,24.05
2023-05-11T10:40:54.691Z,24.13
2023-05-11T10:44:02.951Z,24.35
2023-05-11T10:47:00.528Z,24.31
2023-05-11T10:49:38.037Z,24.08
2023-05-11T10:52:26.790Z,23.90
2023-05-11T10:55:30.604Z,23.89
2023-05-11T10:58:06.981Z,23.98
2023-05-11T11:01:00.657Z,24.10
2023-05-11T11:03:27.840Z,24.07
2023-05-11T11:05:54.014Z,24.13
2023-05-11T11:08:20.460Z,24.11
2023-05-11T11:10:48.563Z,23.80
2023-05-11T11:13:16.610Z,23.63
2023-05-11T11:15:54.899Z,23.89
2023-05-11T11:18:29.366Z,24.23
2023-05-11T11:20:57.825Z,24.49
2023-05-11T11:23:39.922Z,24.11
2023-05-11T11:26:10.985Z,24.04
2023-05-11T11:29:04.731Z,23.92
2023-05-11T11:31:32.847Z,23.93
2023-05-11T11:34:28.087Z,23.94
2023-05-11T11:36:54.169Z,24.03
2023-05-11T11:39:49.264Z,24.04
2023-05-11T11:42:18.051Z,24.01
2023-05-11T11:44:45.522Z,24.49
2023-05-11T11:47:16.612Z,24.59
2023-05-11T11:49:45.246Z,24.77
2023-05-11T11:52:12.821Z,24.92
2023-05-11T11:54:44.554Z,24.78
2023-05-11T11:57:28.982Z,24.99
2023-05-11T11:59:55.756Z,25.25
2023-05-11T12:02:22.640Z,25.10
2023-05-11T12:04:59.208Z,24.22
2023-05-11T12:07:26.414Z,24.56
2023-05-11T12:09:53.155Z,24.87
2023-05-11T12:12:20.294Z,24.51
2023-05-11T12:14:50.286Z,24.89
2023-05-11T12:17:28.677Z,25.09
2023-05-11T12:20:11.529Z,24.07
2023-05-11T12:22:37.858Z,24.08
2023-05-11T12:25:05.851Z,24.10
2023-05-11T12:27:31.969Z,24.08
2023-05-11T12:29:59.501Z,23.63
2023-05-11T12:32:29.803Z,23.42
2023-05-11T12:35:01.172Z,23.44
2023-05-11T12:37:29.243Z,23.69
2023-05-11T12:39:56.999Z,23.60
2023-05-11T12:42:23.506Z,23.82
2023-05-11T12:44:50.720Z,23.41
2023-05-11T12:47:17.060Z,22.99
2023-05-11T12:49:44.096Z,22.95
2023-05-11T12:52:12.869Z,22.77
2023-05-11T12:54:41.046Z,22.78
2023-05-11T12:57:20.952Z,22.99
2023-05-11T12:59:47.397Z,23.85
2023-05-11T13:02:17.522Z,23.96
2023-05-11T13:04:47.000Z,23.86
2023-05-11T13:07:22.539Z,23.37
2023-05-11T13:09:59.747Z,23.36
2023-05-11T13:12:27.657Z,22.85
2023-05-11T13:15:05.235Z,23.04
2023-05-11T13:17:33.367Z,23.32
2023-05-11T13:20:23.836Z,23.41
2023-05-11T13:22:50.425Z,23.49
2023-05-11T13:25:20.131Z,23.10
2023-05-11T13:27:46.707Z,22.84
2023-05-11T13:30:13.409Z,22.72
2023-05-11T13:32:39.729Z,22.64
2023-05-11T13:35:06.572Z,23.18
2023-05-11T13:37:32.680Z,23.78
2023-05-11T13:39:59.129Z,24.08
2023-05-11T13:42:25.222Z,24.18
2023-05-11T13:44:51.653Z,24.24
2023-05-11T13:47:17.834Z,24.64
2023-05-11T13:49:44.307Z,24.59
2023-05-11T13:52:10.562Z,24.93
2023-05-11T13:54:36.955Z,24.93
2023-05-11T13:57:04.013Z,25.04
2023-05-11T13:59:30.509Z,24.65
2023-05-11T14:01:56.741Z,24.50
2023-05-11T14:04:24.669Z,24.14
2023-05-11T14:06:50.785Z,24.10
2023-05-11T14:09:17.381Z,23.88
2023-05-11T14:11:43.609Z,24.13
2023-05-11T14:14:10.314Z,24.35
2023-05-11T14:16:36.408Z,24.18
2023-05-11T14:19:03.062Z,23.88
2023-05-11T14:21:29.230Z,24.04
2023-05-11T14:24:10.651Z,23.64
2023-05-11T14:26:41.644Z,23.73
2023-05-11T14:29:08.176Z,23.74
2023-05-11T14:31:35.565Z,23.66
2023-05-11T14:34:03.521Z,23.66
2023-05-11T14:36:31.040Z,23.21
2023-05-11T14:38:57.635Z,23.00
2023-05-11T14:41:24.951Z,22.92
2023-05-11T14:43:51.553Z,22.82
2023-05-11T14:46:17.860Z,22.76
2023-05-11T14:48:44.397Z,23.07
2023-05-11T14:51:10.677Z,22.99
2023-05-11T14:53:37.202Z,22.99
2023-05-11T14:56:03.686Z,22.95
2023-05-11T14:58:32.435Z,22.82
2023-05-11T15:00:59.645Z,22.66
2023-05-11T15:03:26.541Z,22.43
2023-05-11T15:05:52.858Z,22.19
2023-05-11T15:08:29.567Z,22.24
2023-05-11T15:10:57.354Z,22.31
2023-05-11T15:13:24.008Z,22.32
2023-05-11T15:15:51.013Z,22.54
2023-05-11T15:18:17.511Z,22.54
2023-05-11T15:20:44.062Z,22.43
2023-05-11T15:23:10.866Z,22.39
2023-05-11T15:25:37.189Z,22.49
2023-05-11T15:28:03.918Z,22.46
2023-05-11T15:30:32.540Z,22.32
2023-05-11T15:32:59.294Z,22.09
2023-05-11T15:35:25.408Z,22.25
2023-05-11T15:37:51.813Z,22.03
2023-05-11T15:40:17.971Z,22.05
2023-05-11T15:42:44.578Z,22.03
2023-05-11T15:45:11.130Z,22.12
2023-05-11T15:47:37.740Z,22.11
2023-05-11T15:50:04.305Z,21.99
2023-05-11T15:52:30.714Z,21.85
2023-05-11T15:54:57.114Z,22.09
2023-05-11T15:57:23.675Z,22.08
2023-05-11T15:59:50.195Z,21.90
2023-05-11T16:02:17.275Z,21.89
2023-05-11T16:04:43.767Z,21.93
2023-05-11T16:07:10.325Z,21.79
2023-05-11T16:09:36.787Z,21.79
2023-05-11T16:12:03.688Z,21.68
2023-05-11T16:14:30.380Z,21.66
2023-05-11T16:16:57.233Z,21.67
2023-05-11T16:19:23.917Z,21.75
2023-05-11T16:21:50.687Z,21.64
2023-05-11T16:24:17.026Z,21.64
2023-05-11T16:26:43.831Z,21.75
2023-05-11T16:29:10.400Z,21.65
2023-05-11T16:31:37.025Z,21.58
2023-05-11T16:34:03.209Z,21.43
2023-05-11T16:36:30.239Z,21.43
2023-05-11T16:38:56.532Z,21.36
2023-05-11T16:41:28.101Z,21.41
2023-05-11T16:43:55.234Z,21.30
2023-05-11T16:46:22.552Z,21.26
2023-05-11T16:48:48.855Z,21.25
2023-05-11T16:51:15.279Z,21.25
2023-05-11T16:53:41.527Z,21.13
2023-05-11T16:56:08.111Z,21.11
2023-05-11T16:58:34.955Z,21.07
2023-05-11T17:01:01.640Z,20.98
2023-05-11T17:03:27.896Z,21.00
2023-05-11T17:05:55.519Z,20.94
2023-05-11T17:08:22.046Z,20.83
2023-05-11T17:10:48.728Z,20.86
2023-05-11T17:13:14.995Z,20.76
2023-05-11T17:15:41.776Z,20.79
2023-05-11T17:18:08.271Z,20.71
2023-05-11T17:20:35.227Z,20.68
2023-05-11T17:23:01.572Z,20.63
2023-05-11T17:25:29.266Z,20.66
2023-05-11T17:27:55.630Z,20.58
2023-05-11T17:30:25.476Z,20.55
2023-05-11T17:32:56.674Z,20.47
2023-05-11T17:35:23.621Z,20.39
2023-05-11T17:37:50.001Z,20.43
2023-05-11T17:40:17.625Z,20.38
2023-05-11T17:42:44.050Z,20.37
2023-05-11T17:45:11.424Z,20.25
2023-05-11T17:47:38.160Z,20.20
2023-05-11T17:50:05.380Z,20.08
2023-05-11T17:52:32.030Z,20.07
2023-05-11T17:54:59.195Z,19.88
2023-05-11T17:57:25.788Z,19.91
2023-05-11T17:59:52.858Z,19.85
2023-05-11T18:02:19.582Z,19.74
2023-05-11T18:04:46.655Z,19.67
2023-05-11T18:07:13.140Z,19.65
2023-05-11T18:09:39.794Z,19.62
2023-05-11T18:12:07.280Z,19.52
2023-05-11T18:14:33.875Z,19.42
2023-05-11T18:17:00.153Z,19.42
2023-05-11T18:19:28.022Z,19.25
2023-05-11T18:21:54.649Z,19.18
2023-05-11T18:24:21.216Z,19.15
2023-05-11T18:26:48.346Z,19.00
2023-05-11T18:29:19.202Z,18.92
2023-05-11T18:31:45.952Z,18.85
2023-05-11T18:34:12.456Z,18.82
2023-05-11T18:36:38.819Z,18.71
2023-05-11T18:39:05.510Z,18.69
2023-05-11T18:41:31.960Z,18.58
2023-05-11T18:43:59.463Z,18.52
2023-05-11T18:46:25.604Z,18.42
2023-05-11T18:48:52.696Z,18.32
2023-05-11T18:51:22.614Z,18.28
2023-05-11T18:53:49.594Z,18.17
2023-05-11T18:56:34.639Z,18.10
2023-05-11T18:59:01.077Z,18.03
2023-05-11T19:01:46.122Z,17.96
2023-05-11T19:04:19.034Z,17.91
2023-05-11T19:06:45.539Z,17.84
2023-05-11T19:09:12.335Z,17.80
2023-05-11T19:11:38.597Z,17.71
2023-05-11T19:14:06.971Z,17.74
2023-05-11T19:16:35.150Z,17.64
2023-05-11T19:19:02.204Z,17.55
2023-05-11T19:21:28.485Z,17.49
2023-05-11T19:23:55.238Z,17.46
2023-05-11T19:26:21.970Z,17.45
2023-05-11T19:28:48.671Z,17.38
2023-05-11T19:31:14.973Z,17.35
2023-05-11T19:33:41.686Z,17.36
2023-05-11T19:36:07.929Z,17.30
2023-05-11T19:38:38.133Z,17.26
2023-05-11T19:41:04.536Z,17.19
2023-05-11T19:43:31.378Z,17.14
2023-05-11T19:45:58.239Z,17.10
2023-05-11T19:48:24.968Z,17.12
2023-05-11T19:50:51.570Z,17.05
2023-05-11T19:53:18.218Z,17.07
2023-05-11T19:55:46.016Z,16.99
2023-05-11T19:58:13.928Z,16.96
2023-05-11T20:00:40.647Z,16.92
2023-05-11T20:03:07.795Z,16.90
2023-05-11T20:05:34.487Z,16.84
2023-05-11T20:08:01.449Z,16.79
2023-05-11T20:10:27.932Z,16.73
2023-05-11T20:12:55.172Z,16.68
2023-05-11T20:15:21.784Z,16.64
2023-05-11T20:17:49.530Z,16.61
2023-05-11T20:20:16.188Z,16.55
2023-05-11T20:22:42.937Z,16.48
2023-05-11T20:25:17.535Z,16.48
2023-05-11T20:27:46.240Z,16.45
2023-05-11T20:30:13.135Z,16.42
2023-05-11T20:34:06.772Z,16.39
2023-05-11T20:35:27.916Z,16.34
2023-05-11T20:37:55.030Z,16.27
2023-05-11T20:40:21.578Z,16.30
2023-05-11T20:42:48.284Z,16.19
2023-05-11T20:45:14.876Z,16.19
2023-05-11T20:47:42.021Z,16.14
2023-05-11T20:50:09.365Z,16.06
2023-05-11T20:52:36.827Z,15.99
2023-05-11T20:55:03.312Z,15.91
2023-05-11T20:57:29.840Z,15.84
2023-05-11T21:02:25.827Z,15.81
2023-05-11T21:04:53.332Z,15.72
2023-05-11T21:07:22.340Z,15.68
2023-05-11T21:09:48.909Z,15.62
2023-05-11T21:12:15.891Z,15.59
2023-05-11T21:14:42.377Z,15.54
2023-05-11T21:17:08.823Z,15.54
2023-05-11T21:19:34.996Z,15.52
2023-05-11T21:22:01.490Z,15.44
2023-05-11T21:24:27.772Z,15.39
2023-05-11T21:26:54.181Z,15.40
2023-05-11T21:29:20.414Z,15.33
2023-05-11T21:31:46.850Z,15.28
2023-05-11T21:34:12.993Z,15.25
2023-05-11T21:36:40.599Z,15.21
2023-05-11T21:39:06.657Z,15.18
2023-05-11T21:41:33.150Z,15.14
2023-05-11T21:43:59.350Z,15.09
2023-05-11T21:46:26.036Z,15.07
2023-05-11T21:48:52.088Z,15.02
2023-05-11T21:51:19.633Z,15.04
2023-05-11T21:53:45.698Z,14.99
2023-05-11T21:56:12.211Z,14.90
2023-05-11T21:58:38.753Z,14.93
2023-05-11T22:01:05.371Z,14.89
2023-05-11T22:03:31.714Z,14.84
2023-05-11T22:05:58.275Z,14.77
2023-05-11T22:08:24.471Z,14.80
2023-05-11T22:10:50.666Z,14.71
2023-05-11T22:13:17.023Z,14.67
2023-05-11T22:15:43.185Z,14.70
2023-05-11T22:18:09.801Z,14.62
2023-05-11T22:20:36.118Z,14.56
2023-05-11T22:23:02.740Z,14.59
2023-05-11T22:25:28.932Z,14.53
2023-05-11T22:27:55.262Z,14.50
2023-05-11T22:30:21.719Z,14.49
2023-05-11T22:32:48.331Z,14.47
2023-05-11T22:35:14.491Z,14.42
2023-05-11T22:37:40.876Z,14.38
2023-05-11T22:40:08.039Z,14.40
2023-05-11T22:42:34.416Z,14.36
2023-05-11T22:45:00.856Z,14.39
2023-05-11T22:47:27.268Z,14.35
2023-05-11T22:49:53.570Z,14.33
2023-05-11T22:52:20.427Z,14.34
2023-05-11T22:54:46.950Z,14.28
2023-05-11T22:57:15.432Z,14.25
2023-05-11T22:59:41.906Z,14.21
2023-05-11T23:02:08.462Z,14.19
2023-05-11T23:04:35.028Z,14.19
2023-05-11T23:07:01.523Z,14.10
2023-05-11T23:09:27.712Z,14.08
2023-05-11T23:11:54.288Z,14.07
2023-05-11T23:14:20.381Z,14.04
2023-05-11T23:16:46.825Z,14.02
2023-05-11T23:19:13.264Z,13.93
2023-05-11T23:21:40.027Z,13.99
2023-05-11T23:24:06.375Z,13.93
2023-05-11T23:26:33.081Z,13.86
2023-05-11T23:28:59.178Z,13.81
2023-05-11T23:31:26.981Z,13.72
2023-05-11T23:33:53.348Z,13.68
2023-05-11T23:36:19.732Z,13.62
2023-05-11T23:38:45.823Z,13.63
2023-05-11T23:41:12.157Z,13.58
2023-05-11T23:43:38.340Z,13.51
2023-05-11T23:46:04.746Z,13.49
2023-05-11T23:48:30.840Z,13.42
2023-05-11T23:50:57.204Z,13.39
2023-05-11T23:53:23.291Z,13.35
2023-05-11T23:55:49.664Z,13.31
2023-05-11T23:58:21.927Z,13.24
